Terminal Aerodrome Forecast
Issued by NWS Grand Forks, ND

Home | Current Version | Previous Version | Text Only | Print | Product List | Glossary On
Versions: 1 2 3 4 5 6 7 8 9 10 11 12 13 14 15 16 17 18 19 20 21 22 23
600
FTUS43 KFGF 252336
TAFGFK
TAF
KGFK 252336Z 2600/2624 06010KT P6SM BKN020
     FM260300 33008KT P6SM BKN020
     FM261200 23007KT P6SM OVC020
     FM261500 25009KT P6SM BKN025
     FM261700 26011KT P6SM BKN040
     FM262100 26011KT P6SM SCT060=

USA.gov is the U.S. government's official web portal to all federal, state and local government web resources and services.